Positano — IJZJ — position and weather

sailwx.info

Track history (hours):
 
Tides and Currents Weather Stations Pressure Air Temp Water Temp Dewpoint Dewpoint Depression Visibility Wind Speed Wind Dir Waves Ship Positions

Positano

Last reported at 2015-Jun-26 17:29 UTC. Time now 2015-Jul-01 06:34 UTC.
Position N 40°37' E 014°20'.

Length 12 m.

Type: Ship. MMSI: 247208300.

Date/timePositionNaut miles runAvg speedWind from/ knotsBaromVisibWave heightAir tempDewpointWater temp
2015-Jun-26 17:29N 40°37' E 014°20'6 2.7
2015-Jun-26 15:15N 40°37' E 014°28'1 0.3
2015-Jun-26 11:25N 40°37' E 014°29'4 2.9
2015-Jun-26 10:08N 40°35' E 014°26'5 8.1
2015-Jun-26 09:32N 40°34' E 014°19'2 0.1
2015-Jun-25 18:25N 40°37' E 014°20'0 0.0
2015-Jun-25 17:31N 40°37' E 014°20'8 1.8
2015-Jun-25 13:23N 40°32' E 014°12'1 0.4
2015-Jun-25 11:04N 40°33' E 014°12'2 3.7
2015-Jun-25 10:33N 40°34' E 014°14'1 1.1
2015-Jun-25 09:32N 40°34' E 014°16'  
2015-Jun-22 15:33N 40°36' E 014°18'3 3.4
2015-Jun-22 14:33N 40°33' E 014°15'0 0.0
2015-Jun-22 13:33N 40°33' E 014°15'0 0.0
2015-Jun-22 12:33N 40°33' E 014°15'0 0.0
2015-Jun-22 11:31N 40°33' E 014°15'0 0.0
2015-Jun-22 10:32N 40°33' E 014°15'0 0.0
2015-Jun-22 09:33N 40°33' E 014°15'0 0.0
2015-Jun-22 08:32N 40°33' E 014°15'5 0.1
2015-Jun-20 16:33N 40°37' E 014°20'5 0.1
2015-Jun-19 05:29N 40°33' E 014°16'5 0.4
2015-Jun-18 16:22N 40°37' E 014°20'3 4.3
2015-Jun-18 15:33N 40°35' E 014°17'1 0.4
2015-Jun-18 12:32N 40°35' E 014°18'2 2.0
2015-Jun-18 11:33N 40°37' E 014°20'0 0.0
2015-Jun-18 10:33N 40°37' E 014°20'  
Track history (hours):
 
Tides and Currents Weather Stations Pressure Air Temp Water Temp Dewpoint Dewpoint Depression Visibility Wind Speed Wind Dir Waves Ship Positions

Positano

Last reported at 2015-Jun-26 17:29 UTC. Time now 2015-Jul-01 06:34 UTC.
Position N 40°37' E 014°20'.

Length 12 m.

Type: Ship. MMSI: 247208300.

Date/timePositionNaut miles runAvg speedWind from/ knotsBaromVisibWave heightAir tempDewpointWater temp
2015-Jun-26 17:29N 40°37' E 014°20'6 2.7
2015-Jun-26 15:15N 40°37' E 014°28'1 0.3
2015-Jun-26 11:25N 40°37' E 014°29'4 2.9
2015-Jun-26 10:08N 40°35' E 014°26'5 8.1
2015-Jun-26 09:32N 40°34' E 014°19'2 0.1
2015-Jun-25 18:25N 40°37' E 014°20'0 0.0
2015-Jun-25 17:31N 40°37' E 014°20'8 1.8
2015-Jun-25 13:23N 40°32' E 014°12'1 0.4
2015-Jun-25 11:04N 40°33' E 014°12'2 3.7
2015-Jun-25 10:33N 40°34' E 014°14'1 1.1
2015-Jun-25 09:32N 40°34' E 014°16'  
2015-Jun-22 15:33N 40°36' E 014°18'3 3.4
2015-Jun-22 14:33N 40°33' E 014°15'0 0.0
2015-Jun-22 13:33N 40°33' E 014°15'0 0.0
2015-Jun-22 12:33N 40°33' E 014°15'0 0.0
2015-Jun-22 11:31N 40°33' E 014°15'0 0.0
2015-Jun-22 10:32N 40°33' E 014°15'0 0.0
2015-Jun-22 09:33N 40°33' E 014°15'0 0.0
2015-Jun-22 08:32N 40°33' E 014°15'5 0.1
2015-Jun-20 16:33N 40°37' E 014°20'5 0.1
2015-Jun-19 05:29N 40°33' E 014°16'5 0.4
2015-Jun-18 16:22N 40°37' E 014°20'3 4.3
2015-Jun-18 15:33N 40°35' E 014°17'1 0.4
2015-Jun-18 12:32N 40°35' E 014°18'2 2.0
2015-Jun-18 11:33N 40°37' E 014°20'0 0.0
2015-Jun-18 10:33N 40°37' E 014°20'  

Dump ship's entire track history